Terminal Aerodrome Forecast
Issued by NWS Tampa Bay Area, FL

Home | Current Version | Previous Version | Text Only | Print | Product List | Glossary On
Versions: 1 2 3 4 5 6 7 8 9 10 11 12 13 14 15 16 17 18 19 20 21 22 23 24
000
FTUS42 KTBW 271506 AAB
TAFFMY
TAF AMD
KFMY 271506Z 2715/2812 24012G18KT P6SM BKN120
     FM271800 25015G22KT P6SM VCSH SCT025 BKN090
      TEMPO 2720/2724 4SM TSRA BKN025CB
     FM280000 30015G22KT P6SM VCSH SCT025 BKN090
     FM280200 32012KT P6SM BKN250
     FM280800 36010KT P6SM SKC=

USA.gov is the U.S. government's official web portal to all federal, state and local government web resources and services.